Time;durP1;ratioP1;P1;durP2;ratioP2;P2;SDS_P1;SDS_P2;PMS_P1;PMS_P2;Temp;Humidity;BMP_temperature;BMP_pressure;BME280_temperature;BME280_humidity;BME280_pressure;Samples;Min_cycle;Max_cycle;Signal;HPM_P1;HPM_P2
2023/01/11 00:01:04;;;;;;;3.97;1.85;;;6.40;73.00;;;;;;5074716;28;20537;-63
2023/01/11 00:03:30;;;;;;;7.38;2.00;;;6.50;73.10;;;;;;5083122;28;23206;-63
2023/01/11 00:05:58;;;;;;;5.00;2.13;;;6.50;73.10;;;;;;5080963;28;20029;-63
2023/01/11 00:08:25;;;;;;;3.90;2.20;;;6.50;73.10;;;;;;5075905;28;20059;-63
2023/01/11 00:10:51;;;;;;;4.35;2.25;;;6.50;73.20;;;;;;5084457;28;20096;-63
2023/01/11 00:13:17;;;;;;;4.15;2.13;;;6.60;73.10;;;;;;5078520;28;20058;-65
2023/01/11 00:15:43;;;;;;;6.55;2.35;;;6.60;73.10;;;;;;5086402;28;20020;-64
2023/01/11 00:18:18;;;;;;;3.60;2.20;;;6.60;73.10;;;;;;5079647;28;20036;-65
2023/01/11 00:20:44;;;;;;;9.10;2.70;;;6.60;73.10;;;;;;5074187;28;20040;-64
2023/01/11 00:23:10;;;;;;;5.40;2.40;;;6.60;73.00;;;;;;5078939;28;20021;-64
2023/01/11 00:25:36;;;;;;;3.28;1.80;;;6.70;73.00;;;;;;5081755;28;20027;-64
2023/01/11 00:28:03;;;;;;;6.18;2.58;;;6.70;73.00;;;;;;5085549;28;20411;-64
2023/01/11 00:30:28;;;;;;;7.05;2.80;;;6.70;73.00;;;;;;5084256;28;20036;-64
2023/01/11 00:32:56;;;;;;;8.85;2.50;;;6.70;72.90;;;;;;5087048;28;20063;-65
2023/01/11 00:35:22;;;;;;;4.60;2.15;;;6.70;72.90;;;;;;5087803;28;20036;-64
2023/01/11 00:37:47;;;;;;;7.50;2.25;;;6.70;72.90;;;;;;5086460;28;20028;-64
2023/01/11 00:40:13;;;;;;;5.03;2.20;;;6.70;73.00;;;;;;5073532;28;20383;-65
2023/01/11 00:48:09;;;;;;;5.60;2.35;;;6.80;72.90;;;;;;5084850;28;20067;-65
2023/01/11 00:50:37;;;;;;;3.58;2.40;;;6.80;72.70;;;;;;5081670;28;20051;-65
2023/01/11 00:53:04;;;;;;;5.97;2.67;;;6.80;72.70;;;;;;5080610;28;20024;-65
2023/01/11 00:55:33;;;;;;;4.03;2.40;;;6.80;72.60;;;;;;5087840;28;20095;-64
2023/01/11 00:57:59;;;;;;;5.55;2.22;;;6.80;72.60;;;;;;5088750;28;20036;-64
2023/01/11 01:00:26;;;;;;;6.53;2.50;;;6.80;72.60;;;;;;5090196;28;20024;-65
2023/01/11 01:02:52;;;;;;;5.28;2.33;;;6.80;72.60;;;;;;5085223;28;20028;-64
2023/01/11 01:05:18;;;;;;;6.95;2.65;;;6.80;72.60;;;;;;5090142;28;20025;-64
2023/01/11 01:07:44;;;;;;;4.72;2.40;;;6.80;72.50;;;;;;5079965;28;20518;-64
2023/01/11 01:10:13;;;;;;;4.07;2.05;;;6.80;72.50;;;;;;5087849;28;20849;-64
2023/01/11 01:15:31;;;;;;;4.63;2.60;;;6.80;72.50;;;;;;5081918;28;20044;-64
2023/01/11 01:17:56;;;;;;;5.60;2.70;;;6.80;72.40;;;;;;5084710;28;20085;-64
2023/01/11 01:20:23;;;;;;;5.53;2.38;;;6.80;72.40;;;;;;5083819;28;20020;-64
2023/01/11 01:22:49;;;;;;;7.82;2.50;;;6.80;72.50;;;;;;5095248;28;20039;-63
2023/01/11 01:25:15;;;;;;;4.13;2.17;;;6.80;72.50;;;;;;5087341;28;20863;-63
2023/01/11 01:27:41;;;;;;;5.25;2.30;;;6.80;72.40;;;;;;5088893;28;20036;-63
2023/01/11 01:30:07;;;;;;;6.93;2.28;;;6.80;72.40;;;;;;5079041;28;20074;-64
2023/01/11 01:32:33;;;;;;;4.13;2.30;;;6.80;72.30;;;;;;5087570;28;20052;-64
2023/01/11 01:34:59;;;;;;;5.35;2.33;;;6.80;72.30;;;;;;5084397;28;20024;-64
2023/01/11 01:37:24;;;;;;;5.28;2.17;;;6.80;72.20;;;;;;5087289;28;20032;-64
2023/01/11 01:39:50;;;;;;;8.80;2.05;;;6.80;72.20;;;;;;5086404;28;20040;-64
2023/01/11 01:42:18;;;;;;;3.30;1.80;;;6.80;72.10;;;;;;5089515;28;20494;-64
2023/01/11 01:45:06;;;;;;;5.32;2.20;;;6.80;72.10;;;;;;5081859;28;20037;-65
2023/01/11 01:47:38;;;;;;;3.53;2.25;;;6.80;72.10;;;;;;5100532;28;20025;-64
2023/01/11 01:50:12;;;;;;;6.28;1.95;;;6.80;71.90;;;;;;5087827;28;20036;-64
2023/01/11 01:52:39;;;;;;;4.88;2.17;;;6.70;71.80;;;;;;5087430;28;20082;-64
2023/01/11 01:55:10;;;;;;;3.38;1.75;;;6.70;71.80;;;;;;5083904;28;20047;-64
2023/01/11 01:57:38;;;;;;;5.32;2.22;;;6.70;72.00;;;;;;5082975;28;20035;-64
2023/01/11 02:00:07;;;;;;;5.13;2.17;;;6.70;72.00;;;;;;5079714;28;20025;-64
2023/01/11 02:02:33;;;;;;;6.65;2.33;;;6.70;72.00;;;;;;5084264;28;20024;-64
2023/01/11 02:04:59;;;;;;;4.72;2.22;;;6.70;72.00;;;;;;5072215;28;20028;-64
2023/01/11 02:07:30;;;;;;;3.95;2.25;;;6.70;72.00;;;;;;5083543;28;20031;-65
2023/01/11 02:10:06;;;;;;;6.13;2.50;;;6.70;72.20;;;;;;5085288;28;20069;-64
2023/01/11 02:12:37;;;;;;;3.10;1.88;;;6.70;72.10;;;;;;5083340;28;20029;-64
2023/01/11 02:15:03;;;;;;;6.43;2.40;;;6.70;72.10;;;;;;5093866;28;20130;-64
2023/01/11 02:17:29;;;;;;;5.43;2.38;;;6.70;72.20;;;;;;5077303;28;20012;-65
2023/01/11 02:20:07;;;;;;;5.10;2.40;;;6.60;72.10;;;;;;5084957;28;20036;-64
2023/01/11 02:22:45;;;;;;;2.78;1.77;;;6.60;72.20;;;;;;5086985;28;20024;-64
2023/01/11 02:25:29;;;;;;;4.78;2.15;;;6.60;72.30;;;;;;5079031;28;20027;-64
2023/01/11 02:28:07;;;;;;;3.65;1.80;;;6.60;72.10;;;;;;5083862;28;20028;-64
2023/01/11 02:30:42;;;;;;;2.60;1.90;;;6.60;72.20;;;;;;5083872;28;20028;-64
2023/01/11 02:33:26;;;;;;;4.68;2.10;;;6.60;72.50;;;;;;5085778;28;20043;-64
2023/01/11 02:36:07;;;;;;;6.47;2.22;;;6.60;72.70;;;;;;5080620;28;20028;-64
2023/01/11 02:38:43;;;;;;;4.35;2.22;;;6.60;72.60;;;;;;5092921;28;20028;-64
2023/01/11 02:41:19;;;;;;;5.82;2.38;;;6.60;72.60;;;;;;5075085;28;20035;-63
2023/01/11 02:46:44;;;;;;;4.20;2.10;;;6.60;72.50;;;;;;5075043;28;20032;-63
2023/01/11 02:49:38;;;;;;;6.57;1.98;;;6.60;72.50;;;;;;5081318;28;20460;-62
2023/01/11 02:52:24;;;;;;;3.75;2.00;;;6.60;72.70;;;;;;5083905;28;20039;-63
2023/01/11 02:54:56;;;;;;;4.03;2.22;;;6.60;72.70;;;;;;5088038;28;20036;-64
2023/01/11 02:57:24;;;;;;;4.32;1.77;;;6.60;72.60;;;;;;5081608;28;20048;-63
2023/01/11 02:59:50;;;;;;;3.92;1.80;;;6.60;72.60;;;;;;5092421;28;20081;-62
2023/01/11 03:02:16;;;;;;;4.93;1.90;;;6.60;72.60;;;;;;5083874;28;20382;-63
2023/01/11 03:04:42;;;;;;;2.88;1.70;;;6.60;72.70;;;;;;5077050;28;20025;-63
2023/01/11 03:07:26;;;;;;;4.40;1.70;;;6.60;72.70;;;;;;5085608;28;20028;-63
2023/01/11 03:10:35;;;;;;;5.80;1.70;;;6.70;72.90;;;;;;5079997;28;20032;-64
2023/01/11 03:13:30;;;;;;;3.13;1.58;;;6.70;73.20;;;;;;5073655;28;20037;-63
2023/01/11 03:15:55;;;;;;;5.22;1.33;;;6.70;72.90;;;;;;5070004;28;20020;-64
2023/01/11 03:18:45;;;;;;;3.47;1.38;;;6.70;73.30;;;;;;5069345;28;20037;-63
2023/01/11 03:21:28;;;;;;;6.47;1.92;;;6.70;72.70;;;;;;5053358;28;20033;-64
2023/01/11 03:24:20;;;;;;;3.78;1.85;;;6.80;72.90;;;;;;5073249;28;20036;-64
2023/01/11 03:27:06;;;;;;;3.40;1.70;;;6.80;72.90;;;;;;5062876;28;20036;-64
2023/01/11 03:30:00;;;;;;;5.07;2.20;;;6.80;72.90;;;;;;5057327;28;20017;-63
2023/01/11 03:32:51;;;;;;;5.30;2.10;;;6.90;72.90;;;;;;5068493;28;20036;-63
2023/01/11 03:35:37;;;;;;;2.60;1.70;;;6.90;73.00;;;;;;5069488;28;20037;-62
2023/01/11 03:38:08;;;;;;;2.72;1.23;;;6.90;72.80;;;;;;5071048;28;20036;-64
2023/01/11 03:40:39;;;;;;;4.88;1.77;;;6.90;72.70;;;;;;5064305;28;20086;-64
2023/01/11 03:43:09;;;;;;;4.47;1.60;;;7.00;72.70;;;;;;5067761;28;20017;-63
2023/01/11 03:45:41;;;;;;;2.67;1.48;;;7.00;72.70;;;;;;5065005;28;20108;-64
2023/01/11 03:48:15;;;;;;;4.82;1.58;;;7.00;72.70;;;;;;5088358;28;20043;-64
2023/01/11 03:50:43;;;;;;;3.83;1.90;;;7.10;72.70;;;;;;5076391;28;20045;-64
2023/01/11 03:53:10;;;;;;;3.05;1.40;;;7.10;72.60;;;;;;5080118;28;20082;-65
2023/01/11 03:55:40;;;;;;;2.42;1.42;;;7.10;72.60;;;;;;5076384;28;20029;-64
2023/01/11 03:58:07;;;;;;;2.03;1.58;;;7.20;72.60;;;;;;5079661;28;20035;-63
2023/01/11 04:00:35;;;;;;;7.43;1.83;;;7.20;72.50;;;;;;5080425;28;20080;-64
2023/01/11 04:03:01;;;;;;;3.45;1.40;;;7.20;72.50;;;;;;5087871;28;20381;-64
2023/01/11 04:05:27;;;;;;;4.07;2.05;;;7.20;72.40;;;;;;5080967;28;20061;-63
2023/01/11 04:07:53;;;;;;;2.97;1.60;;;7.20;72.40;;;;;;5079373;28;20036;-64
2023/01/11 04:10:19;;;;;;;4.65;2.00;;;7.30;72.40;;;;;;5078968;28;20032;-64
2023/01/11 04:12:47;;;;;;;3.97;1.83;;;7.30;72.40;;;;;;5082273;28;20040;-64
2023/01/11 04:15:14;;;;;;;4.07;1.80;;;7.30;72.40;;;;;;5082089;28;20032;-64
2023/01/11 04:17:41;;;;;;;4.90;1.80;;;7.30;72.40;;;;;;5082952;28;20037;-64
2023/01/11 04:20:09;;;;;;;3.50;1.50;;;7.30;72.40;;;;;;5087381;28;20047;-65
2023/01/11 04:22:35;;;;;;;5.22;1.83;;;7.30;72.40;;;;;;5079833;28;20058;-64
2023/01/11 04:25:00;;;;;;;4.05;1.55;;;7.30;72.40;;;;;;5087248;28;20062;-64
2023/01/11 04:27:26;;;;;;;4.88;1.63;;;7.40;72.40;;;;;;5082194;28;20028;-65
2023/01/11 04:29:52;;;;;;;3.10;1.90;;;7.40;72.40;;;;;;5089358;28;20036;-63
2023/01/11 04:32:17;;;;;;;4.20;1.88;;;7.40;72.40;;;;;;5087918;28;20038;-63
2023/01/11 04:34:43;;;;;;;3.03;1.40;;;7.40;72.30;;;;;;5077982;28;20859;-64
2023/01/11 04:37:10;;;;;;;4.18;2.00;;;7.40;72.30;;;;;;5092285;28;20032;-63
2023/01/11 04:39:36;;;;;;;3.97;1.90;;;7.50;72.20;;;;;;5086036;28;20344;-63
2023/01/11 04:42:17;;;;;;;4.90;1.80;;;7.50;72.20;;;;;;5075259;28;20031;-64
2023/01/11 04:44:48;;;;;;;3.95;1.85;;;7.50;72.10;;;;;;5079549;28;20041;-63
2023/01/11 04:47:15;;;;;;;4.32;1.70;;;7.50;72.00;;;;;;5088704;28;20135;-63
2023/01/11 04:49:41;;;;;;;3.85;1.90;;;7.60;72.00;;;;;;5079652;28;20025;-65
2023/01/11 04:52:09;;;;;;;2.95;1.65;;;7.60;72.00;;;;;;5064200;28;20048;-64
2023/01/11 04:54:35;;;;;;;3.13;1.52;;;7.60;71.90;;;;;;5060238;28;20025;-63
2023/01/11 04:57:00;;;;;;;3.80;1.80;;;7.60;71.90;;;;;;5065515;28;20029;-63
2023/01/11 04:59:26;;;;;;;4.55;2.15;;;7.60;71.70;;;;;;5062217;28;20033;-62
2023/01/11 05:01:52;;;;;;;4.00;2.00;;;7.60;71.70;;;;;;5065540;28;20033;-63
2023/01/11 05:04:17;;;;;;;3.33;1.90;;;7.60;71.70;;;;;;5065944;28;20021;-63
2023/01/11 05:06:43;;;;;;;3.58;1.65;;;7.60;71.60;;;;;;5062664;28;20108;-63
2023/01/11 05:09:17;;;;;;;4.53;1.42;;;7.60;71.60;;;;;;5057609;28;20025;-64
2023/01/11 05:11:43;;;;;;;4.60;1.52;;;7.60;71.70;;;;;;5066598;28;20040;-63
2023/01/11 05:14:09;;;;;;;3.53;1.85;;;7.60;71.70;;;;;;5058681;28;20032;-63
2023/01/11 05:16:35;;;;;;;5.13;2.13;;;7.70;71.80;;;;;;5061101;28;20025;-63
2023/01/11 05:19:01;;;;;;;6.15;2.00;;;7.60;71.80;;;;;;5069787;28;20075;-64
2023/01/11 05:21:35;;;;;;;2.33;1.85;;;7.70;71.90;;;;;;5058141;28;20025;-64
2023/01/11 05:24:04;;;;;;;3.03;2.20;;;7.70;72.00;;;;;;5070642;28;20021;-64
2023/01/11 05:26:32;;;;;;;4.00;1.88;;;7.70;72.00;;;;;;5061948;28;20024;-64
2023/01/11 05:28:59;;;;;;;3.13;1.73;;;7.70;72.10;;;;;;5056717;28;20021;-64
2023/01/11 05:31:26;;;;;;;5.13;1.92;;;7.70;72.20;;;;;;5065483;28;20120;-64
2023/01/11 05:33:54;;;;;;;3.70;2.05;;;7.70;72.40;;;;;;5057845;28;20033;-64
2023/01/11 05:36:21;;;;;;;3.78;2.17;;;7.80;72.40;;;;;;5060397;28;20029;-64
2023/01/11 05:38:49;;;;;;;3.88;2.00;;;7.80;72.50;;;;;;5058693;28;20111;-64
2023/01/11 05:41:16;;;;;;;5.72;2.22;;;7.80;72.70;;;;;;5059735;28;20036;-63
2023/01/11 05:46:33;;;;;;;2.97;1.92;;;7.80;72.80;;;;;;5056855;28;20388;-63
2023/01/11 05:49:00;;;;;;;3.70;2.60;;;7.80;72.70;;;;;;5055121;28;20028;-63
2023/01/11 05:51:29;;;;;;;5.13;2.15;;;7.90;73.40;;;;;;5078190;28;20053;-64
2023/01/11 05:53:55;;;;;;;3.65;2.20;;;7.90;72.70;;;;;;5080321;28;20124;-64
2023/01/11 05:56:21;;;;;;;4.53;1.98;;;7.90;73.60;;;;;;5069825;28;20021;-63
2023/01/11 05:58:49;;;;;;;3.00;1.88;;;7.90;72.70;;;;;;5081187;28;20028;-64
2023/01/11 06:01:14;;;;;;;3.33;2.08;;;7.90;72.60;;;;;;5082942;28;20169;-63
2023/01/11 06:03:40;;;;;;;3.70;2.00;;;8.00;72.80;;;;;;5081778;28;20654;-63
2023/01/11 06:06:06;;;;;;;3.58;2.05;;;8.00;72.50;;;;;;5079640;28;20052;-64
2023/01/11 06:08:32;;;;;;;2.33;1.92;;;8.00;72.40;;;;;;5100769;27;20035;-63
2023/01/11 06:10:58;;;;;;;1.90;1.70;;;8.00;72.30;;;;;;5074001;28;20048;-64
2023/01/11 06:13:27;;;;;;;3.13;2.05;;;8.00;72.10;;;;;;5079417;28;20032;-63
2023/01/11 06:15:59;;;;;;;3.45;2.00;;;8.10;72.10;;;;;;5078989;28;20025;-63
2023/01/11 06:18:26;;;;;;;2.50;1.80;;;8.10;72.10;;;;;;5085052;28;20395;-63
2023/01/11 06:20:53;;;;;;;4.68;1.98;;;8.10;71.90;;;;;;5083390;28;20028;-63
2023/01/11 06:23:20;;;;;;;3.38;1.80;;;8.10;71.90;;;;;;5082100;28;20032;-63
2023/01/11 06:25:46;;;;;;;4.07;2.13;;;8.10;71.80;;;;;;5082401;28;20035;-63
2023/01/11 06:28:12;;;;;;;2.15;1.70;;;8.10;71.70;;;;;;5093363;28;20035;-64
2023/01/11 06:30:38;;;;;;;3.13;1.73;;;8.10;71.70;;;;;;5082094;28;20044;-63
2023/01/11 06:33:06;;;;;;;2.95;1.73;;;8.00;71.50;;;;;;5082781;28;20029;-64
2023/01/11 06:35:42;;;;;;;3.38;1.77;;;8.10;71.50;;;;;;5089287;28;20459;-65
2023/01/11 06:38:10;;;;;;;2.55;1.52;;;8.00;71.30;;;;;;5080298;28;20498;-63
2023/01/11 06:40:37;;;;;;;3.10;1.65;;;8.00;71.30;;;;;;5080928;28;20121;-64
2023/01/11 06:43:03;;;;;;;4.65;1.90;;;8.00;71.20;;;;;;5086363;28;20153;-64
2023/01/11 06:45:29;;;;;;;3.08;1.58;;;8.00;71.10;;;;;;5087298;28;20028;-63
2023/01/11 06:47:55;;;;;;;2.63;1.85;;;7.90;71.00;;;;;;5091543;28;20043;-64
2023/01/11 06:50:22;;;;;;;2.92;1.83;;;7.90;71.00;;;;;;5079443;28;20040;-63
2023/01/11 06:52:55;;;;;;;5.00;2.40;;;7.80;71.00;;;;;;5083501;28;20063;-63
2023/01/11 06:55:22;;;;;;;5.50;2.22;;;7.80;70.90;;;;;;5085428;28;20020;-65
2023/01/11 06:57:48;;;;;;;5.30;2.22;;;7.80;71.00;;;;;;5081799;28;20039;-65
2023/01/11 07:00:15;;;;;;;3.53;1.98;;;7.80;71.00;;;;;;5085224;28;20048;-64
2023/01/11 07:02:40;;;;;;;2.92;1.70;;;7.80;71.00;;;;;;5087043;28;20032;-65
2023/01/11 07:05:06;;;;;;;3.00;1.80;;;7.80;71.00;;;;;;5077132;28;20020;-65
2023/01/11 07:07:32;;;;;;;3.67;1.73;;;7.80;71.00;;;;;;5082146;28;20107;-65
2023/01/11 07:09:57;;;;;;;3.15;1.73;;;7.80;71.00;;;;;;5082919;28;20036;-64
2023/01/11 07:12:23;;;;;;;3.55;1.90;;;7.70;71.00;;;;;;5079423;28;20044;-65
2023/01/11 07:14:49;;;;;;;4.32;1.88;;;7.70;70.90;;;;;;5073332;28;20033;-65
2023/01/11 07:17:14;;;;;;;5.88;2.15;;;7.70;70.80;;;;;;5086915;28;20036;-64
2023/01/11 07:19:40;;;;;;;3.53;1.50;;;7.70;70.80;;;;;;5075682;28;20040;-65
2023/01/11 07:22:06;;;;;;;2.95;1.60;;;7.70;70.80;;;;;;5075261;28;20033;-64
2023/01/11 07:24:32;;;;;;;2.50;1.65;;;7.70;70.80;;;;;;5085333;28;20072;-65
2023/01/11 07:27:00;;;;;;;2.30;1.48;;;7.70;70.70;;;;;;5087513;28;20036;-65
2023/01/11 07:29:26;;;;;;;3.70;1.60;;;7.70;70.70;;;;;;5082565;28;20082;-66
2023/01/11 07:31:52;;;;;;;1.80;1.40;;;7.70;70.70;;;;;;5085423;28;20135;-65
2023/01/11 07:34:18;;;;;;;3.47;1.70;;;7.70;70.70;;;;;;5082822;28;20016;-65
2023/01/11 07:36:43;;;;;;;4.70;1.27;;;7.70;70.70;;;;;;5082811;28;20394;-65
2023/01/11 07:39:09;;;;;;;3.03;1.48;;;7.70;70.60;;;;;;5081229;28;20059;-65
2023/01/11 07:44:19;;;;;;;2.63;1.38;;;7.70;70.50;;;;;;5082370;28;20070;-65
2023/01/11 07:46:45;;;;;;;3.70;1.60;;;7.60;70.50;;;;;;5080799;28;20051;-64
2023/01/11 07:49:11;;;;;;;3.78;1.60;;;7.60;70.50;;;;;;5086202;28;20020;-65
2023/01/11 07:51:37;;;;;;;1.30;1.20;;;7.70;70.50;;;;;;5084848;28;20495;-65
2023/01/11 07:54:03;;;;;;;3.75;1.42;;;7.60;70.40;;;;;;5086610;28;20025;-66
2023/01/11 07:56:31;;;;;;;4.70;1.80;;;7.70;70.40;;;;;;5078797;28;20062;-65
2023/01/11 07:58:57;;;;;;;1.70;1.20;;;7.70;70.30;;;;;;5081485;28;20036;-65
2023/01/11 08:01:23;;;;;;;3.17;1.45;;;7.70;70.30;;;;;;5077572;28;20050;-65
2023/01/11 08:03:50;;;;;;;3.63;1.60;;;7.70;70.30;;;;;;5080346;28;20076;-65
2023/01/11 08:06:16;;;;;;;2.97;1.85;;;7.70;70.20;;;;;;5081693;28;20020;-65
2023/01/11 08:08:42;;;;;;;3.38;1.73;;;7.70;70.30;;;;;;5078775;28;20069;-65
2023/01/11 08:16:36;;;;;;;2.33;1.45;;;7.70;70.10;;;;;;5092815;28;20058;-64
2023/01/11 08:19:03;;;;;;;3.30;1.80;;;7.80;70.20;;;;;;5019988;28;20024;-64
2023/01/11 08:21:28;;;;;;;2.75;1.70;;;7.70;70.10;;;;;;5078996;28;20063;-63
2023/01/11 08:23:58;;;;;;;1.80;1.40;;;7.80;70.20;;;;;;5084326;28;20025;-64
2023/01/11 08:26:27;;;;;;;3.08;1.52;;;7.80;70.10;;;;;;5081460;28;20039;-64
2023/01/11 08:28:53;;;;;;;3.25;1.77;;;7.80;70.20;;;;;;5078329;28;20065;-64
2023/01/11 08:31:20;;;;;;;1.73;1.48;;;7.80;70.30;;;;;;5076456;28;20044;-64
2023/01/11 08:33:47;;;;;;;9.95;2.08;;;7.80;70.20;;;;;;5074549;28;20119;-64
2023/01/11 08:36:12;;;;;;;3.58;1.67;;;7.80;70.20;;;;;;5082625;28;20020;-65
2023/01/11 08:38:38;;;;;;;3.70;1.60;;;7.90;70.30;;;;;;5083031;28;20093;-64
2023/01/11 08:41:09;;;;;;;3.53;1.52;;;7.90;70.20;;;;;;5076828;28;20043;-63
2023/01/11 08:43:41;;;;;;;4.20;1.60;;;8.00;70.30;;;;;;5066847;28;20159;-64
2023/01/11 08:46:08;;;;;;;4.25;1.70;;;8.10;70.40;;;;;;5078013;28;20031;-64
2023/01/11 08:48:34;;;;;;;1.50;1.20;;;8.10;70.40;;;;;;5076840;28;20866;-64
2023/01/11 08:51:00;;;;;;;2.05;1.42;;;8.20;70.30;;;;;;5076240;28;20079;-64
2023/01/11 08:53:25;;;;;;;3.92;1.58;;;8.30;70.40;;;;;;5082922;28;20037;-65
2023/01/11 08:55:51;;;;;;;6.82;2.10;;;8.40;70.40;;;;;;5076973;28;20074;-63
2023/01/11 08:58:17;;;;;;;4.28;1.90;;;8.50;70.50;;;;;;5076901;28;20031;-63
2023/01/11 09:00:44;;;;;;;3.13;1.98;;;8.60;70.40;;;;;;5080066;28;20029;-64
2023/01/11 09:03:11;;;;;;;4.82;3.10;;;8.70;70.30;;;;;;5083816;28;20364;-64
2023/01/11 09:05:40;;;;;;;3.78;2.13;;;8.80;70.10;;;;;;5092137;28;20070;-63
2023/01/11 09:08:06;;;;;;;4.57;2.20;;;8.90;69.90;;;;;;5082696;28;20455;-64
2023/01/11 09:10:32;;;;;;;3.95;2.20;;;9.00;69.70;;;;;;5074034;28;20025;-64
2023/01/11 09:12:58;;;;;;;3.45;1.98;;;9.00;69.60;;;;;;5080559;28;20047;-64
2023/01/11 09:15:24;;;;;;;3.40;1.88;;;9.10;69.40;;;;;;5083201;28;20040;-64
2023/01/11 09:17:51;;;;;;;3.05;1.60;;;9.10;69.20;;;;;;5080636;28;20028;-64
2023/01/11 09:20:18;;;;;;;1.70;1.15;;;9.10;69.20;;;;;;5079094;28;20024;-65
2023/01/11 09:22:51;;;;;;;2.97;1.45;;;9.20;69.10;;;;;;5090259;28;20023;-64
2023/01/11 09:25:18;;;;;;;2.95;1.20;;;9.20;69.10;;;;;;5081290;28;20024;-64
2023/01/11 09:27:49;;;;;;;2.10;1.30;;;9.20;69.10;;;;;;5086392;28;20036;-64
2023/01/11 09:30:19;;;;;;;3.72;1.40;;;9.30;69.10;;;;;;5090482;28;20029;-65
2023/01/11 09:32:46;;;;;;;1.83;1.20;;;9.30;69.10;;;;;;5075945;28;20103;-64
2023/01/11 09:35:14;;;;;;;2.50;1.33;;;9.30;69.20;;;;;;5084578;28;20351;-64
2023/01/11 09:37:44;;;;;;;2.90;1.65;;;9.40;69.30;;;;;;5083103;28;20043;-64
2023/01/11 09:40:19;;;;;;;3.20;1.83;;;9.40;69.30;;;;;;5087430;28;20092;-64
2023/01/11 09:42:49;;;;;;;2.92;1.77;;;9.50;69.40;;;;;;5078164;28;20025;-65
2023/01/11 09:45:22;;;;;;;3.85;1.58;;;9.50;69.40;;;;;;5073637;28;20036;-64
2023/01/11 09:48:11;;;;;;;9.63;1.60;;;9.60;69.20;;;;;;5079778;28;20032;-65
2023/01/11 09:50:46;;;;;;;3.92;1.65;;;9.60;69.20;;;;;;5079375;28;20051;-64
2023/01/11 09:53:23;;;;;;;2.85;1.80;;;9.70;69.30;;;;;;5078888;28;20039;-64
2023/01/11 09:55:51;;;;;;;4.03;1.70;;;9.80;69.20;;;;;;5081793;28;20016;-63
2023/01/11 09:58:35;;;;;;;2.50;1.48;;;9.80;69.10;;;;;;5089256;28;20494;-63
2023/01/11 10:01:30;;;;;;;4.32;1.40;;;9.90;69.00;;;;;;5083176;28;20024;-64
2023/01/11 10:04:24;;;;;;;1.85;1.50;;;9.90;68.80;;;;;;5081380;28;20036;-64
2023/01/11 10:07:36;;;;;;;3.80;1.80;;;10.00;68.90;;;;;;5079265;28;20028;-65
2023/01/11 10:10:24;;;;;;;2.45;1.50;;;10.00;68.70;;;;;;5074844;28;20052;-64
2023/01/11 10:13:12;;;;;;;4.28;1.75;;;10.00;68.70;;;;;;5073819;28;20036;-64
2023/01/11 10:15:53;;;;;;;2.33;1.52;;;10.00;68.70;;;;;;5079475;28;20044;-64
2023/01/11 10:18:22;;;;;;;3.75;1.60;;;10.10;69.00;;;;;;5080660;28;20025;-65
2023/01/11 10:20:54;;;;;;;3.47;1.38;;;10.10;69.00;;;;;;5075144;28;20031;-65
2023/01/11 10:23:31;;;;;;;2.17;1.38;;;10.10;69.10;;;;;;5115907;27;20032;-65
2023/01/11 10:26:01;;;;;;;2.13;1.30;;;10.10;69.30;;;;;;5077391;28;20012;-65
2023/01/11 10:28:42;;;;;;;3.13;1.60;;;10.20;70.10;;;;;;5092488;28;20397;-65
2023/01/11 10:31:42;;;;;;;2.63;1.85;;;10.20;69.70;;;;;;5089466;28;20036;-65
2023/01/11 10:35:16;;;;;;;2.15;1.60;;;10.20;69.90;;;;;;5084568;28;20040;-64
2023/01/11 10:40:18;;;;;;;2.75;1.40;;;10.30;70.30;;;;;;5076955;28;20032;-65
2023/01/11 10:42:53;;;;;;;3.05;1.60;;;10.30;70.20;;;;;;5087468;28;20035;-65
2023/01/11 10:45:26;;;;;;;3.28;1.70;;;10.40;70.40;;;;;;5072350;28;20029;-64
2023/01/11 10:48:03;;;;;;;2.60;1.90;;;10.40;70.50;;;;;;5082638;28;20020;-65
2023/01/11 10:50:37;;;;;;;4.13;1.92;;;10.50;70.50;;;;;;5079662;28;20055;-63
2023/01/11 10:53:56;;;;;;;8.32;1.98;;;10.50;70.50;;;;;;5082789;28;20039;-64
2023/01/11 10:56:48;;;;;;;7.97;1.92;;;10.60;70.80;;;;;;5050461;28;20038;-64
2023/01/11 10:59:47;;;;;;;1.90;1.70;;;10.70;70.70;;;;;;5083915;28;20017;-65
2023/01/11 11:02:37;;;;;;;2.38;1.80;;;10.70;70.50;;;;;;5077735;28;20031;-64
2023/01/11 11:05:04;;;;;;;4.57;1.92;;;10.80;70.50;;;;;;5081650;28;20033;-66
2023/01/11 11:07:51;;;;;;;2.63;1.63;;;10.80;70.40;;;;;;5078633;28;20467;-64
2023/01/11 11:10:25;;;;;;;4.53;1.60;;;10.90;70.70;;;;;;5083942;28;20324;-64
2023/01/11 11:13:16;;;;;;;1.35;1.25;;;11.00;70.60;;;;;;5078919;28;20040;-64
2023/01/11 11:16:10;;;;;;;3.22;1.17;;;11.00;71.00;;;;;;5076464;28;20101;-64
2023/01/11 11:18:36;;;;;;;2.80;1.60;;;11.00;71.00;;;;;;5073000;28;20052;-65
2023/01/11 11:21:15;;;;;;;7.20;1.50;;;11.00;70.90;;;;;;5077064;28;20028;-65
2023/01/11 11:23:43;;;;;;;5.35;3.10;;;11.00;71.30;;;;;;5098444;28;20055;-64
2023/01/11 11:26:09;;;;;;;6.35;3.95;;;11.00;71.20;;;;;;5081384;28;20070;-64
2023/01/11 11:28:35;;;;;;;4.53;2.97;;;11.00;71.40;;;;;;5084597;28;20035;-64
2023/01/11 11:31:04;;;;;;;4.13;2.70;;;11.00;71.50;;;;;;5075769;28;20040;-64
2023/01/11 11:33:36;;;;;;;3.78;1.98;;;11.10;71.80;;;;;;5082669;28;20032;-66
2023/01/11 11:36:13;;;;;;;2.28;1.65;;;11.10;72.00;;;;;;5075763;28;20029;-64
2023/01/11 11:38:41;;;;;;;2.28;1.67;;;11.10;72.30;;;;;;5074736;28;20017;-64
2023/01/11 11:41:12;;;;;;;2.47;1.45;;;11.10;72.00;;;;;;5084083;28;20032;-64
2023/01/11 11:43:43;;;;;;;2.78;1.40;;;11.20;72.20;;;;;;5083482;28;20190;-64
2023/01/11 11:46:14;;;;;;;3.25;1.50;;;11.20;72.30;;;;;;5084006;28;20040;-63
2023/01/11 11:49:03;;;;;;;2.53;1.40;;;11.30;72.50;;;;;;5078329;28;20023;-64
2023/01/11 11:51:29;;;;;;;7.28;1.60;;;11.30;72.50;;;;;;5078032;28;20070;-63
2023/01/11 11:53:56;;;;;;;2.10;1.52;;;11.30;72.40;;;;;;5076974;28;20024;-65
2023/01/11 11:56:31;;;;;;;2.75;1.67;;;11.30;72.50;;;;;;5081778;28;20020;-64
2023/01/11 11:58:58;;;;;;;4.45;1.20;;;11.40;72.80;;;;;;5082673;28;20025;-64
2023/01/11 12:01:32;;;;;;;4.65;1.60;;;11.40;72.70;;;;;;5079308;28;20029;-65
2023/01/11 12:04:19;;;;;;;3.47;2.08;;;11.40;72.90;;;;;;5083525;28;20035;-65
2023/01/11 12:07:16;;;;;;;3.63;1.95;;;11.50;73.30;;;;;;5071847;28;20085;-65
2023/01/11 12:10:11;;;;;;;2.90;1.70;;;11.50;73.20;;;;;;5069406;28;20029;-64
2023/01/11 12:12:54;;;;;;;2.80;1.55;;;11.50;73.10;;;;;;5072183;28;20045;-63
2023/01/11 12:15:31;;;;;;;2.30;1.30;;;11.60;72.90;;;;;;5080828;28;20028;-63
2023/01/11 12:18:15;;;;;;;2.47;1.38;;;11.60;72.80;;;;;;5071622;28;20025;-64
2023/01/11 12:20:43;;;;;;;4.07;2.20;;;11.60;73.00;;;;;;5078549;28;20024;-63
2023/01/11 12:23:20;;;;;;;4.28;2.42;;;11.60;72.40;;;;;;5082520;28;20445;-64
2023/01/11 12:26:10;;;;;;;3.35;2.30;;;11.60;72.40;;;;;;5086288;28;20083;-63
2023/01/11 12:29:00;;;;;;;3.65;2.00;;;11.60;72.60;;;;;;5077505;28;20111;-64
2023/01/11 12:31:47;;;;;;;3.40;1.92;;;11.60;72.90;;;;;;5073787;28;20494;-64
2023/01/11 12:34:50;;;;;;;3.60;1.73;;;11.60;73.00;;;;;;5085456;28;20035;-64
2023/01/11 12:37:28;;;;;;;2.10;1.38;;;11.70;72.90;;;;;;5080308;28;20100;-63
2023/01/11 12:40:17;;;;;;;2.85;1.27;;;11.60;72.60;;;;;;5080563;28;20032;-63
2023/01/11 12:42:42;;;;;;;4.53;1.50;;;11.60;73.10;;;;;;5074129;28;20029;-63
2023/01/11 12:45:17;;;;;;;2.47;1.38;;;11.60;72.50;;;;;;5079622;28;20098;-65
2023/01/11 12:47:45;;;;;;;3.75;1.50;;;11.60;72.80;;;;;;5081074;28;20120;-63
2023/01/11 12:50:18;;;;;;;1.77;1.33;;;11.50;72.70;;;;;;5077460;28;20065;-64
2023/01/11 12:52:44;;;;;;;1.83;1.35;;;11.50;72.80;;;;;;5079789;28;20045;-64
2023/01/11 12:55:19;;;;;;;4.40;1.40;;;11.50;72.80;;;;;;5084053;28;20025;-64
2023/01/11 12:58:00;;;;;;;1.50;1.38;;;11.50;73.00;;;;;;5080890;28;20043;-63
2023/01/11 13:01:03;;;;;;;2.60;1.50;;;11.50;73.10;;;;;;5081182;28;20034;-63
2023/01/11 13:03:52;;;;;;;3.63;2.05;;;11.50;73.20;;;;;;5080546;28;20063;-63
2023/01/11 13:06:33;;;;;;;4.50;2.60;;;11.40;73.10;;;;;;5084685;28;20024;-63
2023/01/11 13:09:21;;;;;;;3.60;1.80;;;11.40;72.80;;;;;;5086777;28;20033;-64
2023/01/11 13:12:16;;;;;;;2.10;1.50;;;11.40;72.90;;;;;;5075208;28;20164;-65
2023/01/11 13:14:44;;;;;;;3.22;1.80;;;11.40;72.90;;;;;;5079206;28;20447;-65
2023/01/11 13:17:35;;;;;;;2.55;1.70;;;11.40;72.60;;;;;;5076621;28;20040;-65
2023/01/11 13:20:31;;;;;;;1.88;1.20;;;11.30;72.70;;;;;;5088004;28;20032;-63
2023/01/11 13:23:03;;;;;;;4.40;1.60;;;11.30;72.70;;;;;;5084592;28;20028;-64
2023/01/11 13:25:32;;;;;;;3.20;1.58;;;11.30;73.30;;;;;;5081663;28;20028;-64
2023/01/11 13:28:02;;;;;;;8.40;1.65;;;11.30;72.60;;;;;;5081370;28;20024;-66
2023/01/11 13:30:29;;;;;;;2.30;1.70;;;11.20;72.70;;;;;;5084023;28;20450;-64
2023/01/11 13:33:09;;;;;;;2.53;1.58;;;11.20;72.70;;;;;;5073035;28;20090;-65
2023/01/11 13:35:55;;;;;;;3.90;2.10;;;11.20;73.00;;;;;;5075879;28;20036;-65
2023/01/11 13:38:35;;;;;;;4.25;2.10;;;11.20;73.00;;;;;;5076584;28;20043;-65
2023/01/11 13:41:18;;;;;;;6.88;1.88;;;11.20;72.80;;;;;;5074273;28;20103;-65
2023/01/11 13:44:10;;;;;;;4.32;1.90;;;11.10;72.90;;;;;;5087626;28;20461;-65
2023/01/11 13:47:24;;;;;;;2.75;1.90;;;11.20;72.80;;;;;;5073457;28;20045;-64